Terminal Aerodrome Forecast
Issued by NWS Denver/Boulder, CO

Home | Current Version | Previous Version | Text Only | Print | Product List | Glossary On
Versions: 1 2 3 4 5 6 7 8 9 10 11 12 13 14 15 16 17 18 19 20 21 22 23 24 25 26 27 28 29 30 31 32 33 34 35 36 37 38 39 40 41 42 43 44 45 46 47 48 49 50
000
FTUS45 KBOU 281129
TAFDEN
TAF
KDEN 281129Z 2812/2918 26005KT P6SM FEW008 SCT100 BKN200
      TEMPO 2813/2815 BKN008
     FM281600 VRB05KT P6SM SCT035 SCT110
     FM282100 10008KT P6SM SCT070 BKN110
      TEMPO 2822/2902 VRB20G30KT TSRA BKN050CB
     FM290300 17014KT P6SM SCT070 BKN120
     FM290800 21012KT P6SM SCT070 BKN120
     FM291200 29007KT P6SM SCT008 BKN070
     FM291500 03005KT P6SM SCT020 BKN040=

USA.gov is the U.S. government's official web portal to all federal, state and local government web resources and services.